sensor_id;sensor_type;location;lat;lon;timestamp;P1;durP1;ratioP1;P2;durP2;ratioP2
13849;SDS011;6995;52.618;13.488;2022-12-18T00:01:47;56.27;;;42.80;;
13849;SDS011;6995;52.618;13.488;2022-12-18T00:04:31;62.80;;;45.93;;
13849;SDS011;6995;52.618;13.488;2022-12-18T00:06:57;61.97;;;44.53;;
13849;SDS011;6995;52.618;13.488;2022-12-18T00:09:23;54.93;;;42.43;;
13849;SDS011;6995;52.618;13.488;2022-12-18T00:11:49;56.00;;;40.50;;
13849;SDS011;6995;52.618;13.488;2022-12-18T00:14:14;64.20;;;42.17;;
13849;SDS011;6995;52.618;13.488;2022-12-18T00:16:42;55.77;;;43.57;;
13849;SDS011;6995;52.618;13.488;2022-12-18T00:19:09;52.60;;;40.37;;
13849;SDS011;6995;52.618;13.488;2022-12-18T00:21:36;61.97;;;42.63;;
13849;SDS011;6995;52.618;13.488;2022-12-18T00:24:01;54.10;;;39.37;;
13849;SDS011;6995;52.618;13.488;2022-12-18T00:26:30;63.40;;;48.03;;
13849;SDS011;6995;52.618;13.488;2022-12-18T00:29:01;68.80;;;61.17;;
13849;SDS011;6995;52.618;13.488;2022-12-18T00:31:37;62.57;;;44.53;;
13849;SDS011;6995;52.618;13.488;2022-12-18T00:34:03;56.93;;;40.10;;
13849;SDS011;6995;52.618;13.488;2022-12-18T00:36:31;60.00;;;51.30;;
13849;SDS011;6995;52.618;13.488;2022-12-18T00:38:59;52.00;;;38.53;;
13849;SDS011;6995;52.618;13.488;2022-12-18T00:41:26;50.53;;;36.43;;
13849;SDS011;6995;52.618;13.488;2022-12-18T00:44:12;57.97;;;40.23;;
13849;SDS011;6995;52.618;13.488;2022-12-18T00:46:40;58.60;;;43.80;;
13849;SDS011;6995;52.618;13.488;2022-12-18T00:49:07;53.80;;;39.83;;
13849;SDS011;6995;52.618;13.488;2022-12-18T00:51:33;52.10;;;41.87;;
13849;SDS011;6995;52.618;13.488;2022-12-18T00:53:58;58.57;;;37.93;;
13849;SDS011;6995;52.618;13.488;2022-12-18T00:56:24;54.87;;;40.17;;
13849;SDS011;6995;52.618;13.488;2022-12-18T00:58:50;57.23;;;38.80;;
13849;SDS011;6995;52.618;13.488;2022-12-18T01:01:16;50.83;;;38.67;;
13849;SDS011;6995;52.618;13.488;2022-12-18T01:03:41;50.77;;;39.13;;
13849;SDS011;6995;52.618;13.488;2022-12-18T01:06:08;49.00;;;38.17;;
13849;SDS011;6995;52.618;13.488;2022-12-18T01:08:36;51.97;;;43.27;;
13849;SDS011;6995;52.618;13.488;2022-12-18T01:11:15;51.03;;;36.93;;
13849;SDS011;6995;52.618;13.488;2022-12-18T01:13:43;51.87;;;38.33;;
13849;SDS011;6995;52.618;13.488;2022-12-18T01:16:11;49.77;;;38.77;;
13849;SDS011;6995;52.618;13.488;2022-12-18T01:18:38;57.03;;;38.67;;
13849;SDS011;6995;52.618;13.488;2022-12-18T01:21:11;56.83;;;40.67;;
13849;SDS011;6995;52.618;13.488;2022-12-18T01:23:40;54.63;;;38.63;;
13849;SDS011;6995;52.618;13.488;2022-12-18T01:26:07;50.83;;;40.77;;
13849;SDS011;6995;52.618;13.488;2022-12-18T01:28:34;57.63;;;38.40;;
13849;SDS011;6995;52.618;13.488;2022-12-18T01:31:14;52.57;;;39.53;;
13849;SDS011;6995;52.618;13.488;2022-12-18T01:33:45;65.90;;;40.93;;
13849;SDS011;6995;52.618;13.488;2022-12-18T01:36:15;60.70;;;43.27;;
13849;SDS011;6995;52.618;13.488;2022-12-18T01:38:45;58.60;;;39.43;;
13849;SDS011;6995;52.618;13.488;2022-12-18T01:41:11;55.23;;;40.03;;
13849;SDS011;6995;52.618;13.488;2022-12-18T01:43:43;60.97;;;42.90;;
13849;SDS011;6995;52.618;13.488;2022-12-18T01:46:12;64.73;;;44.30;;
13849;SDS011;6995;52.618;13.488;2022-12-18T01:48:38;61.07;;;44.70;;
13849;SDS011;6995;52.618;13.488;2022-12-18T01:51:05;57.90;;;41.80;;
13849;SDS011;6995;52.618;13.488;2022-12-18T01:53:33;65.13;;;45.33;;
13849;SDS011;6995;52.618;13.488;2022-12-18T01:55:59;57.20;;;41.57;;
13849;SDS011;6995;52.618;13.488;2022-12-18T01:58:30;47.33;;;38.83;;
13849;SDS011;6995;52.618;13.488;2022-12-18T02:01:04;57.43;;;41.53;;
13849;SDS011;6995;52.618;13.488;2022-12-18T02:03:30;53.73;;;45.60;;
13849;SDS011;6995;52.618;13.488;2022-12-18T02:08:39;54.20;;;43.17;;
13849;SDS011;6995;52.618;13.488;2022-12-18T02:14:47;58.97;;;41.30;;
13849;SDS011;6995;52.618;13.488;2022-12-18T02:17:55;57.40;;;40.77;;
13849;SDS011;6995;52.618;13.488;2022-12-18T02:20:33;60.33;;;43.93;;
13849;SDS011;6995;52.618;13.488;2022-12-18T02:28:53;62.40;;;43.23;;
13849;SDS011;6995;52.618;13.488;2022-12-18T02:31:29;59.60;;;41.00;;
13849;SDS011;6995;52.618;13.488;2022-12-18T02:34:01;60.63;;;41.43;;
13849;SDS011;6995;52.618;13.488;2022-12-18T02:36:29;61.33;;;41.43;;
13849;SDS011;6995;52.618;13.488;2022-12-18T02:38:58;59.40;;;43.87;;
13849;SDS011;6995;52.618;13.488;2022-12-18T02:41:26;54.93;;;41.23;;
13849;SDS011;6995;52.618;13.488;2022-12-18T02:43:55;56.77;;;39.70;;
13849;SDS011;6995;52.618;13.488;2022-12-18T02:46:25;54.73;;;40.60;;
13849;SDS011;6995;52.618;13.488;2022-12-18T02:49:26;60.73;;;40.03;;
13849;SDS011;6995;52.618;13.488;2022-12-18T02:52:07;52.97;;;43.87;;
13849;SDS011;6995;52.618;13.488;2022-12-18T03:00:07;65.60;;;45.67;;
13849;SDS011;6995;52.618;13.488;2022-12-18T03:02:45;59.20;;;41.03;;
13849;SDS011;6995;52.618;13.488;2022-12-18T03:07:43;74.93;;;46.67;;
13849;SDS011;6995;52.618;13.488;2022-12-18T03:10:22;73.43;;;44.87;;
13849;SDS011;6995;52.618;13.488;2022-12-18T03:12:59;74.57;;;42.83;;
13849;SDS011;6995;52.618;13.488;2022-12-18T03:15:30;69.83;;;43.90;;
13849;SDS011;6995;52.618;13.488;2022-12-18T03:18:04;64.50;;;44.60;;
13849;SDS011;6995;52.618;13.488;2022-12-18T03:20:42;66.67;;;43.47;;
13849;SDS011;6995;52.618;13.488;2022-12-18T03:23:12;74.73;;;45.17;;
13849;SDS011;6995;52.618;13.488;2022-12-18T03:25:41;68.13;;;45.47;;
13849;SDS011;6995;52.618;13.488;2022-12-18T03:28:16;73.83;;;46.30;;
13849;SDS011;6995;52.618;13.488;2022-12-18T03:30:45;69.53;;;44.50;;
13849;SDS011;6995;52.618;13.488;2022-12-18T03:33:18;67.93;;;44.40;;
13849;SDS011;6995;52.618;13.488;2022-12-18T03:35:54;83.03;;;53.10;;
13849;SDS011;6995;52.618;13.488;2022-12-18T03:38:21;76.60;;;47.50;;
13849;SDS011;6995;52.618;13.488;2022-12-18T03:43:19;82.47;;;49.93;;
13849;SDS011;6995;52.618;13.488;2022-12-18T03:46:07;78.33;;;44.40;;
13849;SDS011;6995;52.618;13.488;2022-12-18T03:48:44;71.40;;;43.47;;
13849;SDS011;6995;52.618;13.488;2022-12-18T03:54:02;65.47;;;42.27;;
13849;SDS011;6995;52.618;13.488;2022-12-18T03:56:31;63.60;;;42.03;;
13849;SDS011;6995;52.618;13.488;2022-12-18T03:59:00;67.67;;;45.83;;
13849;SDS011;6995;52.618;13.488;2022-12-18T04:01:34;62.17;;;40.80;;
13849;SDS011;6995;52.618;13.488;2022-12-18T04:04:03;50.67;;;38.43;;
13849;SDS011;6995;52.618;13.488;2022-12-18T04:06:34;58.77;;;39.60;;
13849;SDS011;6995;52.618;13.488;2022-12-18T04:09:02;61.47;;;39.67;;
13849;SDS011;6995;52.618;13.488;2022-12-18T04:11:30;55.40;;;41.90;;
13849;SDS011;6995;52.618;13.488;2022-12-18T04:13:56;56.30;;;40.60;;
13849;SDS011;6995;52.618;13.488;2022-12-18T04:16:23;56.93;;;42.13;;
13849;SDS011;6995;52.618;13.488;2022-12-18T04:18:50;59.87;;;39.97;;
13849;SDS011;6995;52.618;13.488;2022-12-18T04:21:16;59.33;;;43.93;;
13849;SDS011;6995;52.618;13.488;2022-12-18T04:23:41;61.33;;;42.13;;
13849;SDS011;6995;52.618;13.488;2022-12-18T04:26:07;54.57;;;41.87;;
13849;SDS011;6995;52.618;13.488;2022-12-18T04:28:33;49.43;;;37.27;;
13849;SDS011;6995;52.618;13.488;2022-12-18T04:30:59;56.13;;;38.23;;
13849;SDS011;6995;52.618;13.488;2022-12-18T04:33:24;53.20;;;44.23;;
13849;SDS011;6995;52.618;13.488;2022-12-18T04:35:50;48.77;;;37.90;;
13849;SDS011;6995;52.618;13.488;2022-12-18T04:38:16;56.67;;;39.83;;
13849;SDS011;6995;52.618;13.488;2022-12-18T04:40:42;64.23;;;44.93;;
13849;SDS011;6995;52.618;13.488;2022-12-18T04:43:08;49.13;;;39.03;;
13849;SDS011;6995;52.618;13.488;2022-12-18T04:45:34;53.43;;;39.17;;
13849;SDS011;6995;52.618;13.488;2022-12-18T04:48:00;56.00;;;36.87;;
13849;SDS011;6995;52.618;13.488;2022-12-18T04:50:27;52.27;;;38.47;;
13849;SDS011;6995;52.618;13.488;2022-12-18T04:52:52;51.77;;;37.57;;
13849;SDS011;6995;52.618;13.488;2022-12-18T04:55:24;61.00;;;44.87;;
13849;SDS011;6995;52.618;13.488;2022-12-18T04:57:58;52.60;;;39.07;;
13849;SDS011;6995;52.618;13.488;2022-12-18T05:00:26;51.07;;;38.57;;
13849;SDS011;6995;52.618;13.488;2022-12-18T05:02:52;50.00;;;38.53;;
13849;SDS011;6995;52.618;13.488;2022-12-18T05:05:21;59.20;;;44.13;;
13849;SDS011;6995;52.618;13.488;2022-12-18T05:07:52;52.60;;;39.23;;
13849;SDS011;6995;52.618;13.488;2022-12-18T05:10:27;57.40;;;41.50;;
13849;SDS011;6995;52.618;13.488;2022-12-18T05:12:53;57.00;;;45.53;;
13849;SDS011;6995;52.618;13.488;2022-12-18T05:15:30;47.07;;;41.70;;
13849;SDS011;6995;52.618;13.488;2022-12-18T05:17:57;55.23;;;41.77;;
13849;SDS011;6995;52.618;13.488;2022-12-18T05:20:27;47.00;;;42.13;;
13849;SDS011;6995;52.618;13.488;2022-12-18T05:22:58;58.40;;;45.57;;
13849;SDS011;6995;52.618;13.488;2022-12-18T05:25:24;54.77;;;40.83;;
13849;SDS011;6995;52.618;13.488;2022-12-18T05:28:02;54.77;;;44.00;;
13849;SDS011;6995;52.618;13.488;2022-12-18T05:30:28;50.10;;;39.27;;
13849;SDS011;6995;52.618;13.488;2022-12-18T05:33:09;51.77;;;43.20;;
13849;SDS011;6995;52.618;13.488;2022-12-18T05:35:52;52.93;;;40.53;;
13849;SDS011;6995;52.618;13.488;2022-12-18T05:38:38;53.93;;;40.87;;
13849;SDS011;6995;52.618;13.488;2022-12-18T05:41:05;55.03;;;40.00;;
13849;SDS011;6995;52.618;13.488;2022-12-18T05:43:35;46.87;;;38.13;;
13849;SDS011;6995;52.618;13.488;2022-12-18T05:46:08;48.13;;;39.73;;
13849;SDS011;6995;52.618;13.488;2022-12-18T05:48:40;46.63;;;39.40;;
13849;SDS011;6995;52.618;13.488;2022-12-18T05:51:09;52.50;;;39.80;;
13849;SDS011;6995;52.618;13.488;2022-12-18T05:53:43;52.63;;;38.40;;
13849;SDS011;6995;52.618;13.488;2022-12-18T05:56:17;55.23;;;45.63;;
13849;SDS011;6995;52.618;13.488;2022-12-18T05:58:46;54.90;;;39.80;;
13849;SDS011;6995;52.618;13.488;2022-12-18T06:01:22;56.33;;;41.93;;
13849;SDS011;6995;52.618;13.488;2022-12-18T06:03:55;63.83;;;49.13;;
13849;SDS011;6995;52.618;13.488;2022-12-18T06:09:45;40.90;;;36.07;;
13849;SDS011;6995;52.618;13.488;2022-12-18T06:12:11;46.63;;;39.17;;
13849;SDS011;6995;52.618;13.488;2022-12-18T06:14:37;57.57;;;45.40;;
13849;SDS011;6995;52.618;13.488;2022-12-18T06:17:02;51.30;;;41.50;;
13849;SDS011;6995;52.618;13.488;2022-12-18T06:19:31;50.03;;;41.70;;
13849;SDS011;6995;52.618;13.488;2022-12-18T06:21:57;47.83;;;38.63;;
13849;SDS011;6995;52.618;13.488;2022-12-18T06:31:10;48.20;;;39.00;;
13849;SDS011;6995;52.618;13.488;2022-12-18T06:33:42;55.43;;;46.13;;
13849;SDS011;6995;52.618;13.488;2022-12-18T06:36:09;54.93;;;43.13;;
13849;SDS011;6995;52.618;13.488;2022-12-18T06:38:37;55.57;;;37.90;;
13849;SDS011;6995;52.618;13.488;2022-12-18T06:41:11;54.30;;;39.83;;
13849;SDS011;6995;52.618;13.488;2022-12-18T06:43:41;63.73;;;46.07;;
13849;SDS011;6995;52.618;13.488;2022-12-18T06:46:08;54.33;;;40.30;;
13849;SDS011;6995;52.618;13.488;2022-12-18T06:48:34;51.73;;;39.93;;
13849;SDS011;6995;52.618;13.488;2022-12-18T06:51:00;57.33;;;39.90;;
13849;SDS011;6995;52.618;13.488;2022-12-18T06:53:26;63.87;;;42.73;;
13849;SDS011;6995;52.618;13.488;2022-12-18T06:55:52;63.07;;;43.43;;
13849;SDS011;6995;52.618;13.488;2022-12-18T06:58:24;60.57;;;41.03;;
13849;SDS011;6995;52.618;13.488;2022-12-18T07:00:50;66.00;;;42.27;;
13849;SDS011;6995;52.618;13.488;2022-12-18T07:03:16;62.37;;;38.83;;
13849;SDS011;6995;52.618;13.488;2022-12-18T07:05:42;61.90;;;41.23;;
13849;SDS011;6995;52.618;13.488;2022-12-18T07:08:08;60.00;;;42.97;;
13849;SDS011;6995;52.618;13.488;2022-12-18T07:10:33;58.60;;;38.53;;
13849;SDS011;6995;52.618;13.488;2022-12-18T07:13:05;60.17;;;41.60;;
13849;SDS011;6995;52.618;13.488;2022-12-18T07:15:31;59.60;;;41.17;;
13849;SDS011;6995;52.618;13.488;2022-12-18T07:17:56;59.40;;;42.07;;
13849;SDS011;6995;52.618;13.488;2022-12-18T07:20:22;60.80;;;39.90;;
13849;SDS011;6995;52.618;13.488;2022-12-18T07:22:48;65.70;;;44.33;;
13849;SDS011;6995;52.618;13.488;2022-12-18T07:25:16;65.10;;;47.20;;
13849;SDS011;6995;52.618;13.488;2022-12-18T07:27:42;65.73;;;45.17;;
13849;SDS011;6995;52.618;13.488;2022-12-18T07:30:24;62.17;;;41.03;;
13849;SDS011;6995;52.618;13.488;2022-12-18T07:32:52;72.03;;;49.07;;
13849;SDS011;6995;52.618;13.488;2022-12-18T07:35:59;64.80;;;38.03;;
13849;SDS011;6995;52.618;13.488;2022-12-18T07:38:33;61.77;;;43.93;;
13849;SDS011;6995;52.618;13.488;2022-12-18T07:41:06;65.30;;;42.83;;
13849;SDS011;6995;52.618;13.488;2022-12-18T07:43:39;56.53;;;38.20;;
13849;SDS011;6995;52.618;13.488;2022-12-18T07:46:08;61.43;;;41.67;;
13849;SDS011;6995;52.618;13.488;2022-12-18T07:48:35;63.57;;;41.70;;
13849;SDS011;6995;52.618;13.488;2022-12-18T07:51:02;59.50;;;40.33;;
13849;SDS011;6995;52.618;13.488;2022-12-18T07:53:29;66.73;;;42.80;;
13849;SDS011;6995;52.618;13.488;2022-12-18T07:56:03;74.00;;;41.27;;
13849;SDS011;6995;52.618;13.488;2022-12-18T07:58:30;63.57;;;43.00;;
13849;SDS011;6995;52.618;13.488;2022-12-18T08:01:04;56.70;;;37.37;;
13849;SDS011;6995;52.618;13.488;2022-12-18T08:03:37;56.60;;;39.83;;
13849;SDS011;6995;52.618;13.488;2022-12-18T08:06:06;56.43;;;39.40;;
13849;SDS011;6995;52.618;13.488;2022-12-18T08:08:37;51.00;;;37.97;;
13849;SDS011;6995;52.618;13.488;2022-12-18T08:11:02;45.63;;;37.43;;
13849;SDS011;6995;52.618;13.488;2022-12-18T08:13:28;62.17;;;44.20;;
13849;SDS011;6995;52.618;13.488;2022-12-18T08:15:57;50.40;;;40.90;;
13849;SDS011;6995;52.618;13.488;2022-12-18T08:18:27;49.40;;;39.13;;
13849;SDS011;6995;52.618;13.488;2022-12-18T08:20:54;52.10;;;43.47;;
13849;SDS011;6995;52.618;13.488;2022-12-18T08:23:20;51.80;;;45.07;;
13849;SDS011;6995;52.618;13.488;2022-12-18T08:25:52;54.13;;;39.93;;
13849;SDS011;6995;52.618;13.488;2022-12-18T08:32:16;55.87;;;49.30;;
13849;SDS011;6995;52.618;13.488;2022-12-18T08:37:56;50.10;;;45.03;;
13849;SDS011;6995;52.618;13.488;2022-12-18T08:40:25;74.00;;;67.00;;
13849;SDS011;6995;52.618;13.488;2022-12-18T08:42:56;59.40;;;53.37;;
13849;SDS011;6995;52.618;13.488;2022-12-18T08:45:43;53.63;;;40.27;;
13849;SDS011;6995;52.618;13.488;2022-12-18T08:58:19;46.90;;;38.07;;
13849;SDS011;6995;52.618;13.488;2022-12-18T09:15:27;52.03;;;37.30;;
13849;SDS011;6995;52.618;13.488;2022-12-18T09:18:52;57.60;;;47.30;;
13849;SDS011;6995;52.618;13.488;2022-12-18T09:59:44;46.33;;;40.87;;
13849;SDS011;6995;52.618;13.488;2022-12-18T11:02:54;59.00;;;40.83;;
13849;SDS011;6995;52.618;13.488;2022-12-18T11:05:30;64.47;;;43.37;;
13849;SDS011;6995;52.618;13.488;2022-12-18T11:07:58;60.87;;;39.23;;
13849;SDS011;6995;52.618;13.488;2022-12-18T11:10:34;64.60;;;44.90;;
13849;SDS011;6995;52.618;13.488;2022-12-18T11:13:18;43.73;;;39.00;;
13849;SDS011;6995;52.618;13.488;2022-12-18T11:15:47;45.43;;;38.67;;
13849;SDS011;6995;52.618;13.488;2022-12-18T11:18:17;55.00;;;43.73;;
13849;SDS011;6995;52.618;13.488;2022-12-18T11:20:44;46.50;;;39.63;;
13849;SDS011;6995;52.618;13.488;2022-12-18T11:23:19;54.63;;;44.87;;
13849;SDS011;6995;52.618;13.488;2022-12-18T11:25:57;49.53;;;39.20;;
13849;SDS011;6995;52.618;13.488;2022-12-18T11:28:35;55.97;;;42.27;;
13849;SDS011;6995;52.618;13.488;2022-12-18T11:37:54;51.90;;;41.17;;
13849;SDS011;6995;52.618;13.488;2022-12-18T12:54:49;42.00;;;37.53;;
13849;SDS011;6995;52.618;13.488;2022-12-18T13:14:40;38.70;;;34.77;;
13849;SDS011;6995;52.618;13.488;2022-12-18T13:24:46;36.77;;;32.93;;
13849;SDS011;6995;52.618;13.488;2022-12-18T13:34:39;42.77;;;38.57;;
13849;SDS011;6995;52.618;13.488;2022-12-18T13:58:12;40.40;;;35.70;;
13849;SDS011;6995;52.618;13.488;2022-12-18T14:20:40;39.07;;;34.93;;
13849;SDS011;6995;52.618;13.488;2022-12-18T14:51:33;41.73;;;37.27;;
13849;SDS011;6995;52.618;13.488;2022-12-18T14:53:45;40.17;;;36.17;;
13849;SDS011;6995;52.618;13.488;2022-12-18T14:56:17;45.03;;;40.50;;
13849;SDS011;6995;52.618;13.488;2022-12-18T14:58:49;45.83;;;35.90;;
13849;SDS011;6995;52.618;13.488;2022-12-18T15:01:21;42.37;;;38.00;;
13849;SDS011;6995;52.618;13.488;2022-12-18T15:03:50;49.73;;;44.67;;
13849;SDS011;6995;52.618;13.488;2022-12-18T15:06:21;45.20;;;40.60;;
13849;SDS011;6995;52.618;13.488;2022-12-18T15:08:52;47.17;;;37.03;;
13849;SDS011;6995;52.618;13.488;2022-12-18T15:11:35;41.67;;;37.37;;
13849;SDS011;6995;52.618;13.488;2022-12-18T15:14:28;44.67;;;39.83;;
13849;SDS011;6995;52.618;13.488;2022-12-18T15:16:59;38.57;;;34.90;;
13849;SDS011;6995;52.618;13.488;2022-12-18T15:19:34;41.17;;;37.57;;
13849;SDS011;6995;52.618;13.488;2022-12-18T15:22:03;38.23;;;34.23;;
13849;SDS011;6995;52.618;13.488;2022-12-18T15:24:30;50.93;;;46.27;;
13849;SDS011;6995;52.618;13.488;2022-12-18T15:27:00;42.83;;;38.67;;
13849;SDS011;6995;52.618;13.488;2022-12-18T15:29:26;39.40;;;35.80;;
13849;SDS011;6995;52.618;13.488;2022-12-18T15:32:01;38.53;;;34.90;;
13849;SDS011;6995;52.618;13.488;2022-12-18T15:34:29;40.63;;;36.40;;
13849;SDS011;6995;52.618;13.488;2022-12-18T15:36:56;41.97;;;38.07;;
13849;SDS011;6995;52.618;13.488;2022-12-18T15:39:22;42.70;;;38.67;;
13849;SDS011;6995;52.618;13.488;2022-12-18T15:41:48;39.63;;;35.80;;
13849;SDS011;6995;52.618;13.488;2022-12-18T15:44:32;35.50;;;32.20;;
13849;SDS011;6995;52.618;13.488;2022-12-18T15:46:58;36.27;;;32.97;;
13849;SDS011;6995;52.618;13.488;2022-12-18T15:49:24;35.60;;;32.10;;
13849;SDS011;6995;52.618;13.488;2022-12-18T15:51:53;35.93;;;32.73;;
13849;SDS011;6995;52.618;13.488;2022-12-18T15:54:22;38.40;;;34.57;;
13849;SDS011;6995;52.618;13.488;2022-12-18T15:57:11;36.83;;;33.13;;
13849;SDS011;6995;52.618;13.488;2022-12-18T15:59:49;35.90;;;32.60;;
13849;SDS011;6995;52.618;13.488;2022-12-18T16:02:18;48.60;;;44.43;;
13849;SDS011;6995;52.618;13.488;2022-12-18T16:04:44;44.77;;;40.77;;
13849;SDS011;6995;52.618;13.488;2022-12-18T16:07:11;40.73;;;37.10;;
13849;SDS011;6995;52.618;13.488;2022-12-18T16:09:37;39.17;;;35.53;;
13849;SDS011;6995;52.618;13.488;2022-12-18T16:12:03;38.67;;;34.70;;
13849;SDS011;6995;52.618;13.488;2022-12-18T16:14:31;39.77;;;35.93;;
13849;SDS011;6995;52.618;13.488;2022-12-18T16:17:08;39.00;;;35.07;;
13849;SDS011;6995;52.618;13.488;2022-12-18T16:19:35;43.90;;;39.60;;
13849;SDS011;6995;52.618;13.488;2022-12-18T16:22:02;38.63;;;34.53;;
13849;SDS011;6995;52.618;13.488;2022-12-18T16:24:29;43.87;;;39.60;;
13849;SDS011;6995;52.618;13.488;2022-12-18T16:26:58;40.47;;;36.73;;
13849;SDS011;6995;52.618;13.488;2022-12-18T16:29:26;56.40;;;51.80;;
13849;SDS011;6995;52.618;13.488;2022-12-18T16:31:56;52.67;;;47.97;;
13849;SDS011;6995;52.618;13.488;2022-12-18T16:34:25;38.87;;;34.97;;
13849;SDS011;6995;52.618;13.488;2022-12-18T16:36:53;43.10;;;38.63;;
13849;SDS011;6995;52.618;13.488;2022-12-18T16:39:20;41.73;;;37.53;;
13849;SDS011;6995;52.618;13.488;2022-12-18T16:41:46;40.00;;;36.13;;
13849;SDS011;6995;52.618;13.488;2022-12-18T16:44:13;42.40;;;37.93;;
13849;SDS011;6995;52.618;13.488;2022-12-18T16:46:39;46.85;;;42.47;;
13849;SDS011;6995;52.618;13.488;2022-12-18T16:49:08;44.20;;;39.83;;
13849;SDS011;6995;52.618;13.488;2022-12-18T16:51:35;40.93;;;36.77;;
13849;SDS011;6995;52.618;13.488;2022-12-18T16:54:00;43.23;;;39.03;;
13849;SDS011;6995;52.618;13.488;2022-12-18T16:56:26;42.53;;;38.27;;
13849;SDS011;6995;52.618;13.488;2022-12-18T16:58:52;44.53;;;39.87;;
13849;SDS011;6995;52.618;13.488;2022-12-18T17:01:20;46.33;;;41.60;;
13849;SDS011;6995;52.618;13.488;2022-12-18T17:03:51;42.53;;;37.87;;
13849;SDS011;6995;52.618;13.488;2022-12-18T17:06:21;51.30;;;46.43;;
13849;SDS011;6995;52.618;13.488;2022-12-18T17:08:48;40.13;;;36.10;;
13849;SDS011;6995;52.618;13.488;2022-12-18T17:11:19;44.57;;;40.17;;
13849;SDS011;6995;52.618;13.488;2022-12-18T17:13:45;42.17;;;38.17;;
13849;SDS011;6995;52.618;13.488;2022-12-18T17:16:10;42.53;;;38.30;;
13849;SDS011;6995;52.618;13.488;2022-12-18T17:18:36;42.53;;;38.03;;
13849;SDS011;6995;52.618;13.488;2022-12-18T17:21:02;44.93;;;40.47;;
13849;SDS011;6995;52.618;13.488;2022-12-18T17:23:31;40.80;;;36.90;;
13849;SDS011;6995;52.618;13.488;2022-12-18T17:25:57;41.47;;;37.23;;
13849;SDS011;6995;52.618;13.488;2022-12-18T17:28:24;40.43;;;36.30;;
13849;SDS011;6995;52.618;13.488;2022-12-18T17:30:53;42.27;;;37.80;;
13849;SDS011;6995;52.618;13.488;2022-12-18T17:33:19;43.47;;;39.07;;
13849;SDS011;6995;52.618;13.488;2022-12-18T17:35:46;42.80;;;38.20;;
13849;SDS011;6995;52.618;13.488;2022-12-18T17:38:14;50.23;;;45.43;;
13849;SDS011;6995;52.618;13.488;2022-12-18T17:40:40;43.93;;;39.23;;
13849;SDS011;6995;52.618;13.488;2022-12-18T17:43:06;42.70;;;38.27;;
13849;SDS011;6995;52.618;13.488;2022-12-18T17:45:34;48.03;;;42.97;;
13849;SDS011;6995;52.618;13.488;2022-12-18T17:48:01;40.03;;;34.93;;
13849;SDS011;6995;52.618;13.488;2022-12-18T17:50:33;44.43;;;38.73;;
13849;SDS011;6995;52.618;13.488;2022-12-18T17:53:00;51.87;;;46.83;;
13849;SDS011;6995;52.618;13.488;2022-12-18T17:55:27;46.00;;;41.03;;
13849;SDS011;6995;52.618;13.488;2022-12-18T17:57:53;135.07;;;98.87;;
13849;SDS011;6995;52.618;13.488;2022-12-18T18:00:19;88.97;;;70.70;;
13849;SDS011;6995;52.618;13.488;2022-12-18T18:02:45;50.23;;;44.87;;
13849;SDS011;6995;52.618;13.488;2022-12-18T18:05:11;46.77;;;39.50;;
13849;SDS011;6995;52.618;13.488;2022-12-18T18:07:38;45.37;;;40.07;;
13849;SDS011;6995;52.618;13.488;2022-12-18T18:10:04;44.77;;;39.63;;
13849;SDS011;6995;52.618;13.488;2022-12-18T18:12:31;46.27;;;41.43;;
13849;SDS011;6995;52.618;13.488;2022-12-18T18:15:15;55.17;;;49.37;;
13849;SDS011;6995;52.618;13.488;2022-12-18T18:17:41;49.03;;;43.63;;
13849;SDS011;6995;52.618;13.488;2022-12-18T18:20:07;48.70;;;41.77;;
13849;SDS011;6995;52.618;13.488;2022-12-18T18:22:33;50.10;;;42.83;;
13849;SDS011;6995;52.618;13.488;2022-12-18T18:24:59;45.87;;;40.73;;
13849;SDS011;6995;52.618;13.488;2022-12-18T18:27:29;50.37;;;41.33;;
13849;SDS011;6995;52.618;13.488;2022-12-18T18:29:55;57.88;;;51.70;;
13849;SDS011;6995;52.618;13.488;2022-12-18T18:32:21;52.50;;;46.83;;
13849;SDS011;6995;52.618;13.488;2022-12-18T18:34:47;56.07;;;44.20;;
13849;SDS011;6995;52.618;13.488;2022-12-18T18:37:13;49.17;;;42.63;;
13849;SDS011;6995;52.618;13.488;2022-12-18T18:39:38;50.27;;;42.63;;
13849;SDS011;6995;52.618;13.488;2022-12-18T18:42:04;49.73;;;44.27;;
13849;SDS011;6995;52.618;13.488;2022-12-18T18:44:30;49.43;;;44.23;;
13849;SDS011;6995;52.618;13.488;2022-12-18T18:46:56;53.50;;;44.50;;
13849;SDS011;6995;52.618;13.488;2022-12-18T18:49:23;48.73;;;41.57;;
13849;SDS011;6995;52.618;13.488;2022-12-18T18:51:51;52.23;;;43.57;;
13849;SDS011;6995;52.618;13.488;2022-12-18T18:54:19;48.77;;;40.47;;
13849;SDS011;6995;52.618;13.488;2022-12-18T18:56:45;54.33;;;44.17;;
13849;SDS011;6995;52.618;13.488;2022-12-18T18:59:12;48.40;;;43.13;;
13849;SDS011;6995;52.618;13.488;2022-12-18T19:01:38;50.00;;;44.57;;
13849;SDS011;6995;52.618;13.488;2022-12-18T19:04:04;50.20;;;43.73;;
13849;SDS011;6995;52.618;13.488;2022-12-18T19:06:30;54.33;;;46.37;;
13849;SDS011;6995;52.618;13.488;2022-12-18T19:08:56;48.50;;;42.87;;
13849;SDS011;6995;52.618;13.488;2022-12-18T19:11:23;56.23;;;43.20;;
13849;SDS011;6995;52.618;13.488;2022-12-18T19:14:09;51.60;;;42.87;;
13849;SDS011;6995;52.618;13.488;2022-12-18T19:16:36;48.73;;;40.83;;
13849;SDS011;6995;52.618;13.488;2022-12-18T19:19:03;56.23;;;46.93;;
13849;SDS011;6995;52.618;13.488;2022-12-18T19:21:32;51.27;;;42.63;;
13849;SDS011;6995;52.618;13.488;2022-12-18T19:23:59;50.30;;;42.50;;
13849;SDS011;6995;52.618;13.488;2022-12-18T19:26:25;56.03;;;42.70;;
13849;SDS011;6995;52.618;13.488;2022-12-18T19:29:01;56.67;;;45.20;;
13849;SDS011;6995;52.618;13.488;2022-12-18T19:31:28;61.43;;;51.50;;
13849;SDS011;6995;52.618;13.488;2022-12-18T19:33:54;45.57;;;40.63;;
13849;SDS011;6995;52.618;13.488;2022-12-18T19:36:24;58.07;;;48.87;;
13849;SDS011;6995;52.618;13.488;2022-12-18T19:38:52;59.40;;;42.87;;
13849;SDS011;6995;52.618;13.488;2022-12-18T19:41:21;58.17;;;47.93;;
13849;SDS011;6995;52.618;13.488;2022-12-18T19:43:48;59.00;;;43.23;;
13849;SDS011;6995;52.618;13.488;2022-12-18T19:46:15;53.60;;;48.27;;
13849;SDS011;6995;52.618;13.488;2022-12-18T19:48:43;52.97;;;43.43;;
13849;SDS011;6995;52.618;13.488;2022-12-18T19:51:10;52.77;;;46.47;;
13849;SDS011;6995;52.618;13.488;2022-12-18T19:53:41;61.77;;;47.27;;
13849;SDS011;6995;52.618;13.488;2022-12-18T19:56:08;60.50;;;41.20;;
13849;SDS011;6995;52.618;13.488;2022-12-18T19:58:35;48.73;;;39.07;;
13849;SDS011;6995;52.618;13.488;2022-12-18T20:01:02;49.80;;;40.93;;
13849;SDS011;6995;52.618;13.488;2022-12-18T20:03:27;47.93;;;41.57;;
13849;SDS011;6995;52.618;13.488;2022-12-18T20:05:54;52.23;;;39.67;;
13849;SDS011;6995;52.618;13.488;2022-12-18T20:08:20;52.23;;;45.73;;
13849;SDS011;6995;52.618;13.488;2022-12-18T20:10:49;56.73;;;42.73;;
13849;SDS011;6995;52.618;13.488;2022-12-18T20:13:15;54.97;;;45.57;;
13849;SDS011;6995;52.618;13.488;2022-12-18T20:15:41;56.43;;;50.80;;
13849;SDS011;6995;52.618;13.488;2022-12-18T20:18:08;54.03;;;44.63;;
13849;SDS011;6995;52.618;13.488;2022-12-18T20:20:34;50.70;;;42.53;;
13849;SDS011;6995;52.618;13.488;2022-12-18T20:23:01;55.80;;;49.20;;
13849;SDS011;6995;52.618;13.488;2022-12-18T20:25:27;56.43;;;48.70;;